Historyczne dane pomiarowe

Dodano dane terminowe – wersja testowa.

Dane z okresu 1951-2019

Wersja bazy: 1.34 [2019-03-16, lista zmian], aktualizacja planowana na 2019-04-15

Dane meteo z obszaru Polski uzyskane na podstawie danych udostępnionych przez Instytut Meteorologii i Gospodarki Wodnej – Państwowy Instytut Badawczy.

 

Wybierz Datę:    

       

TemperaturaWilgotnośćZachmurzenieWiatrCiśnienieWidzialnośćZjawiska
 Data    tng td wb rh cc ccl cl cm ch dir g1 g2 mslp ppp      
1994-07-16 00:00:00 16.5--- 14.7 15.489wxwx0wx--1020.5 980.0 0.0---wx
1994-07-16 01:00:00 16.3--- 14.5 15.289wxwx0wx--1020.7 980.2----wx
1994-07-16 02:00:00 16.2--- 14.6 15.290wxwxwx1wx--1020.8 980.3----wx
1994-07-16 03:00:00 16.5--- 14.7 15.489wxwxwx0wx--1020.5 980.0----wx
1994-07-16 04:00:00 16.6--- 14.6 15.488wxwxwx1wx--1020.8 980.3----wx
1994-07-16 05:00:00 17.3--- 15.2 16.088wxwxwx0wx--1020.8 980.4----wx
1994-07-16 06:00:00 17.8--- 15.6 16.487wxwxwx0wx--1020.8 980.5 0.0---wx
1994-07-16 07:00:00 19.4--- 15.3 16.877wxwxwx0wx--1020.6 980.5----wx
1994-07-16 08:00:00 22.0--- 14.3 17.262wxwxwxwxwx0wx--1020.0 980.3----wx
1994-07-16 09:00:00 23.6--- 15.8 18.662wxwxwxwxwx1wx--1019.8 980.3----wx
1994-07-16 10:00:00 23.8--- 15.3 18.459wxwxwxwx3wx--1020.1 980.6----wx
1994-07-16 11:00:00 24.0--- 14.1 17.854wxwxwxwx2wx--1020.1 980.6----wx
1994-07-16 12:00:00 25.0--- 15.3 18.855wxwxwxwx2wx--1019.5 980.2 0.0---wx
1994-07-16 13:00:00 24.6--- 14.6 18.354wxwxwxwx1wx--1019.3 980.0----wx
1994-07-16 14:00:00 25.0--- 14.9 18.654wxwxwxwx1wx--1018.9 979.6----wx
1994-07-16 15:00:00 26.0--- 15.8 19.453wxwxwxwx1wx--1018.6 979.5----wx
1994-07-16 16:00:00 25.8--- 15.6 19.253wxwxwxwxwx1wx--1018.5 979.3----wx
1994-07-16 17:00:00 25.0--- 16.0 19.258wxwxwxwx1wx--1018.7 979.4----wx
1994-07-16 18:00:00 24.0--- 16.6 19.263wxwxwxwx0wx--1018.9 979.5 0.0---wx
1994-07-16 19:00:00 21.2--- 16.5 18.275wxwxwxwx0wx--1019.7 979.9----wx
1994-07-16 20:00:00 20.2--- 16.8 18.081wxwxwxwx0wx--1019.9 980.0----wx
1994-07-16 21:00:00 19.4--- 16.6 17.684wxwxwx0wx--1020.1 980.0----wx
1994-07-16 22:00:00 17.8--- 15.9 16.689wxwxwx0wx--1020.5 980.2----wx
1994-07-16 23:00:00 16.4--- 15.4 15.894wxwx0wx--1020.7 980.2----wx

 

Źródłem pochodzenia danych jest Instytut Meteorologii i Gospodarki Wodnej – Państwowy Instytut Badawczy. Dane Instytutu Meteorologii i Gospodarki Wodnej – Państwowego Instytutu Badawczego zostały przetworzone.

Dane źródłowe można odnaleźć na stronie https://dane.imgw.pl